| time (UTC) | temp F | wind direction | speed MPH | gust MPH | rain 1hr in | rain 24hr in | rain mn in | humidity % | barometer mb |
| 20260510141555 | 72 | 88 | 2.0 | 6.0 | 0.00 | 1.07 | 0.01 | 100 | 1017.1 |
| 20260510140052 | 71 | 91 | 2.0 | 8.0 | 0.00 | 1.07 | 0.01 | 100 | 1016.9 |
| 20260510134550 | 71 | 35 | 1.0 | 6.0 | 0.00 | 1.50 | 0.01 | 100 | 1016.9 |
| 20260510133047 | 70 | 67 | 1.0 | 9.0 | 0.00 | 1.50 | 0.01 | 100 | 1016.9 |
| 20260510131544 | 70 | 78 | 0.0 | 7.0 | 0.00 | 1.50 | 0.01 | 100 | 1016.6 |
| 20260510130043 | 69 | 49 | 1.0 | 11.0 | 0.00 | 1.50 | 0.01 | 100 | 1016.3 |
| 20260510124540 | 69 | 63 | 1.0 | 6.0 | 0.00 | 1.50 | 0.01 | 100 | 1016.1 |
| 20260510123038 | 69 | 55 | 2.0 | 7.0 | 0.00 | 1.50 | 0.01 | 100 | 1015.8 |
| 20260510121536 | 68 | 53 | 0.0 | 3.0 | 0.00 | 1.50 | 0.01 | 100 | 1015.6 |
| 20260510120035 | 68 | 119 | 0.0 | 2.0 | 0.00 | 1.50 | 0.01 | 100 | 1015.4 |
| 20260510114534 | 68 | 94 | 0.0 | 4.0 | 0.00 | 1.50 | 0.01 | 100 | 1015.2 |
| 20260510113033 | 68 | 71 | 0.0 | 2.0 | 0.00 | 1.50 | 0.01 | 100 | 1015.0 |
| 20260510111529 | 68 | 64 | 0.0 | 4.0 | 0.00 | 1.50 | 0.01 | 100 | 1014.7 |
| 20260510110033 | 69 | 130 | 0.0 | 5.0 | 0.00 | 1.50 | 0.01 | 100 | 1014.4 |
| 20260510104525 | 69 | 63 | 1.0 | 4.0 | 0.00 | 1.50 | 0.01 | 100 | 1014.2 |
| 20260510103024 | 69 | 89 | 0.0 | 4.0 | 0.00 | 1.50 | 0.01 | 100 | 1013.8 |
| 20260510101522 | 69 | 46 | 1.0 | 2.0 | 0.00 | 1.50 | 0.01 | 100 | 1013.7 |
| 20260510100022 | 69 | 42 | 1.0 | 3.0 | 0.00 | 1.50 | 0.01 | 100 | 1013.5 |
| 20260510094535 | 69 | 80 | 0.0 | 3.0 | 0.00 | 1.50 | 0.01 | 100 | 1013.6 |
| 20260510093021 | 69 | 86 | 1.0 | 8.0 | 0.00 | 1.50 | 0.01 | 100 | 1013.5 |
| 20260510091522 | 69 | 54 | 2.0 | 5.0 | 0.00 | 1.50 | 0.01 | 100 | 1013.4 |
| 20260510090020 | 69 | 58 | 3.0 | 9.0 | 0.01 | 1.50 | 0.01 | 100 | 1013.4 |
| 20260510084520 | 69 | 20 | 4.0 | 10.0 | 0.01 | 1.50 | 0.01 | 100 | 1013.4 |
| 20260510083027 | 69 | 36 | 4.0 | 7.0 | 0.01 | 1.50 | 0.01 | 100 | 1013.4 |
| 20260510081516 | 69 | 45 | 3.0 | 10.0 | 0.01 | 1.50 | 0.01 | 100 | 1013.3 |
| 20260510080022 | 69 | 40 | 4.0 | 8.0 | 0.00 | 1.49 | 0.00 | 100 | 1013.2 |
| 20260510074512 | 69 | 360 | 3.0 | 6.0 | 0.00 | 1.49 | 0.00 | 100 | 1013.1 |
| 20260510073018 | 68 | 46 | 2.0 | 5.0 | 0.00 | 1.49 | 0.00 | 100 | 1013.0 |
| 20260510071510 | 68 | 55 | 1.0 | 4.0 | 0.00 | 1.49 | 0.00 | 100 | 1012.8 |
| 20260510070009 | 68 | 53 | 1.0 | 4.0 | 0.00 | 1.49 | 0.00 | 100 | 1012.8 |
| 20260510064508 | 67 | 56 | 2.0 | 3.0 | 0.00 | 1.49 | 0.00 | 100 | 1013.1 |
| 20260510063009 | 67 | 48 | 0.0 | 3.0 | 0.00 | 1.49 | 0.00 | 100 | 1013.0 |
| 20260510061509 | 68 | 129 | 0.0 | 3.0 | 0.00 | 1.49 | 0.00 | 100 | 1012.9 |
| 20260510060009 | 68 | 63 | 0.0 | 5.0 | 0.00 | 1.49 | 0.00 | 100 | 1013.2 |
| 20260510054508 | 68 | 120 | 0.0 | 0.0 | 0.00 | 1.49 | 0.00 | 100 | 1013.0 |
| 20260510053002 | 68 | 137 | 1.0 | 7.0 | 0.00 | 1.49 | 0.00 | 100 | 1012.9 |
| 20260510051606 | 68 | 132 | 0.0 | 4.0 | 0.00 | 1.49 | 0.00 | 100 | 1012.9 |
| 20260510050104 | 68 | 143 | 3.0 | 8.0 | 0.00 | 1.49 | 0.00 | 100 | 1012.9 |
| 20260510044617 | 68 | 116 | 2.0 | 8.0 | 0.00 | 1.49 | 1.49 | 100 | 1012.8 |
| 20260510043058 | 68 | 148 | 5.0 | 9.0 | 0.00 | 1.49 | 1.49 | 100 | 1013.0 |
| 20260510041557 | 68 | 152 | 2.0 | 10.0 | 0.00 | 1.49 | 1.49 | 100 | 1013.3 |
| 20260510040059 | 68 | 153 | 4.0 | 9.0 | 0.00 | 1.49 | 1.49 | 100 | 1013.2 |
| 20260510034556 | 68 | 135 | 5.0 | 11.0 | 0.00 | 1.49 | 1.49 | 100 | 1013.0 |
| 20260510033107 | 68 | 153 | 5.0 | 8.0 | 0.00 | 1.49 | 1.49 | 100 | 1013.3 |
| 20260510031555 | 68 | 204 | 0.0 | 3.0 | 0.00 | 1.49 | 1.49 | 100 | 1013.8 |
| 20260510024555 | 68 | 201 | 0.0 | 2.0 | 0.00 | 1.49 | 1.49 | 100 | 1013.9 |
| 20260510023054 | 68 | 167 | 0.0 | 3.0 | 0.00 | 1.49 | 1.49 | 100 | 1013.6 |
| 20260510021559 | 68 | 360 | 1.0 | 5.0 | 0.00 | 1.49 | 1.49 | 100 | 1013.3 |
| 20260510020052 | 68 | 138 | 5.0 | 8.0 | 0.00 | 1.49 | 1.49 | 100 | 1013.1 |
| 20260510014553 | 68 | 164 | 3.0 | 8.0 | 0.00 | 1.49 | 1.49 | 100 | 1013.1 |
| 20260510013051 | 68 | 128 | 3.0 | 7.0 | 0.00 | 1.49 | 1.49 | 100 | 1012.8 |
| 20260510011551 | 69 | 142 | 4.0 | 9.0 | 0.00 | 1.49 | 1.49 | 100 | 1012.7 |
| 20260510010049 | 69 | 150 | 5.0 | 9.0 | 0.00 | 1.49 | 1.49 | 100 | 1012.7 |
| 20260510004551 | 69 | 126 | 5.0 | 9.0 | 0.00 | 1.52 | 1.49 | 100 | 1012.7 |
| 20260510003050 | 69 | 169 | 4.0 | 8.0 | 0.00 | 1.52 | 1.49 | 100 | 1012.6 |
| 20260510001547 | 69 | 150 | 3.0 | 6.0 | 0.02 | 1.52 | 1.49 | 100 | 1012.7 |
| 20260510000048 | 69 | 155 | 2.0 | 8.0 | 0.04 | 1.52 | 1.49 | 100 | 1012.7 |
| 20260509234546 | 69 | 160 | 2.0 | 7.0 | 0.04 | 1.52 | 1.49 | 100 | 1012.7 |
| 20260509233045 | 69 | 360 | 3.0 | 7.0 | 0.04 | 1.52 | 1.49 | 100 | 1012.4 |
| 20260509231546 | 69 | 168 | 2.0 | 8.0 | 0.02 | 1.50 | 1.47 | 100 | 1012.9 |
| 20260509230044 | 69 | 128 | 1.0 | 7.0 | 0.00 | 1.48 | 1.45 | 100 | 1012.7 |
| 20260509224544 | 69 | 169 | 1.0 | 7.0 | 0.01 | 1.48 | 1.45 | 100 | 1012.5 |
| 20260509223043 | 69 | 134 | 3.0 | 7.0 | 0.01 | 1.48 | 1.45 | 100 | 1012.4 |
| 20260509221542 | 69 | 161 | 2.0 | 4.0 | 0.01 | 1.48 | 1.45 | 100 | 1011.7 |
| 20260509220041 | 70 | 192 | 1.0 | 4.0 | 0.01 | 1.48 | 1.45 | 100 | 1012.1 |
| 20260509214541 | 69 | 199 | 1.0 | 6.0 | 0.00 | 1.58 | 1.44 | 100 | 1012.4 |
| 20260509213043 | 69 | 190 | 3.0 | 10.0 | 0.00 | 1.58 | 1.44 | 100 | 1012.6 |
| 20260509211538 | 68 | 162 | 7.0 | 12.0 | 0.01 | 1.58 | 1.44 | 100 | 1011.5 |
| 20260509210049 | 68 | 149 | 4.0 | 9.0 | 0.02 | 1.58 | 1.44 | 100 | 1011.7 |
| 20260509204541 | 68 | 161 | 4.0 | 10.0 | 0.04 | 2.13 | 1.44 | 100 | 1011.4 |
| 20260509203041 | 69 | 139 | 4.0 | 8.0 | 0.06 | 2.13 | 1.44 | 100 | 1011.9 |
| 20260509201537 | 68 | 168 | 2.0 | 7.0 | 0.07 | 2.12 | 1.43 | 100 | 1012.4 |
| 20260509200035 | 68 | 144 | 2.0 | 5.0 | 0.10 | 2.11 | 1.42 | 100 | 1013.2 |
| 20260509194534 | 67 | 122 | 2.0 | 5.0 | 0.10 | 2.09 | 1.40 | 100 | 1013.0 |
| 20260509193040 | 67 | 151 | 3.0 | 9.0 | 0.09 | 2.06 | 1.38 | 100 | 1012.9 |
| 20260509191539 | 67 | 150 | 2.0 | 5.0 | 0.08 | 2.04 | 1.36 | 100 | 1013.3 |
| 20260509190033 | 67 | 136 | 0.0 | 1.0 | 0.06 | 2.00 | 1.32 | 100 | 1013.7 |
| 20260509184541 | 67 | 145 | 0.0 | 3.0 | 0.05 | 1.99 | 1.30 | 100 | 1013.0 |
| 20260509183033 | 67 | 129 | 4.0 | 7.0 | 0.05 | 1.98 | 1.29 | 100 | 1013.0 |
| 20260509181533 | 67 | 178 | 2.0 | 5.0 | 0.05 | 1.97 | 1.28 | 100 | 1013.5 |
| 20260509180029 | 67 | 133 | 4.0 | 9.0 | 0.05 | 1.95 | 1.26 | 100 | 1013.2 |
| 20260509174528 | 67 | 155 | 3.0 | 7.0 | 0.09 | 1.94 | 1.25 | 100 | 1013.3 |
| 20260509171537 | 66 | 158 | 4.0 | 8.0 | 0.49 | 1.92 | 1.23 | 100 | 1013.9 |
| 20260509164604 | 66 | 107 | 0.0 | 4.0 | 0.62 | 1.85 | 1.15 | 100 | 1013.8 |
| 20260509163058 | 66 | 135 | 2.0 | 7.0 | 0.47 | 1.67 | 0.98 | 100 | 1014.5 |
| 20260509161600 | 67 | 93 | 1.0 | 7.0 | 0.24 | 1.43 | 0.74 | 100 | 1014.2 |
| 20260509160056 | 67 | 128 | 3.0 | 10.0 | 0.17 | 1.36 | 0.67 | 100 | 1014.2 |
| 20260509154556 | 67 | 207 | 4.0 | 12.0 | 0.04 | 1.23 | 0.54 | 99 | 1014.1 |
| 20260509153102 | 68 | 47 | 4.0 | 19.0 | 0.01 | 1.20 | 0.51 | 99 | 1013.9 |
| 20260509151554 | 68 | 183 | 2.0 | 12.0 | 0.02 | 1.19 | 0.50 | 99 | 1013.9 |
| 20260509150050 | 68 | 22 | 6.0 | 16.0 | 0.06 | 1.19 | 0.50 | 99 | 1013.8 |
| 20260509144550 | 68 | 54 | 6.0 | 21.0 | 0.12 | 1.19 | 0.50 | 99 | 1013.7 |
| 20260509143050 | 68 | 28 | 11.0 | 25.0 | 0.15 | 1.19 | 0.50 | 99 | 1013.5 |